Tiempo atmosférico en la estación meteorológica de Adra,club Naútico, Almería (8 m.)



Fecha
DESCASC
Temp. máxima en grados centígrados (hora)
DESCASC
Temp. mínima en grados centígrados (hora)
DESCASC
Temp. media en grados centígrados
DESCASC
Racha de viento máxima en m/sg (hora)
DESCASC
Velocidad máxima media en intervalos de 10 minutos(hora)
DESCASC
Precipitaciones diarias en mm
DESCASC
Precipitaciones de 00:00 a 06:00 en mm
DESCASC
Precipitaciones de 06:00 a 12:00 en mm
DESCASC
Precipitaciones de 12:00 a 18:00 en mm
DESCASC
Precipitaciones de 18:00 a 24:00 en mm
DESCASC

Gráficas

Temp. máximas Temp. mínimas Temp. medias Precipitaciones Rachas de viento máximas Velocidades máximas media en intervalos de 10 minutos

Datos horarios

Fecha y hora oficial Temperatura (ºC) Velocidad del viento (km/h) Dirección del viento Racha (km/h) Dirección de racha Precipitación (mm) Presión (hPa) Tendencia (hPa) Humedad (%)
2020-01-22 23:00:00 12.5 4 Nordeste 10 Norte 0 1019.3 0.9 81
2020-01-22 22:00:00 13.1 2 Nordeste 11 Nordeste 0 1019.2 1.8 80
2020-01-22 21:00:00 12.7 4 Norte 12 Norte 0 1018.8 1.9 81
2020-01-22 20:00:00 13.2 5 Norte 13 Norte 0 1018.4 2.5 80
2020-01-22 19:00:00 14.2 3 Norte 13 Este 0 1017.4 2 73
2020-01-22 18:00:00 14.6 2 Norte 16 Sudeste 0 1016.9 2 75
2020-01-22 17:00:00 15.1 7 Sudeste 18 Sudeste 0 1015.9 1.1 71
2020-01-22 16:00:00 15.5 8 Este 32 Este 0 1015.4 -0.3 62
2020-01-22 15:00:00 16.3 12 Este 31 Este 0 1014.9 -1.3 56
2020-01-22 14:00:00 16.5 13 Este 36 Este 0 1014.8 -1.2 57
2020-01-22 13:00:00 16.6 11 Este 25 Este 0 1015.7 -0.5 59
2020-01-22 12:00:00 16.3 10 Este 28 Este 0 1016.2 -0.5 59
2020-01-22 11:00:00 16.3 5 Nordeste 20 Norte 0 1016 -1 55
2020-01-22 10:00:00 14.4 10 Norte 23 Norte 0 1016.2 0 61
2020-01-22 09:00:00 12.6 12 Norte 27 Norte 0 1016.7 0.6 67
2020-01-22 08:00:00 12.1 8 Norte 19 Norte 0 1017 0.5 70
2020-01-22 07:00:00 12 6 Nordeste 24 Norte 0 1016.2 -1 71
2020-01-22 06:00:00 11.6 9 Norte 22 Norte 0 1016.1 -1.3 74
2020-01-22 05:00:00 10.8 12 Nordeste 24 Norte 0 1016.5 -1.2 78
2020-01-22 04:00:00 10.6 6 Nordeste 14 Nordeste 0 1017.2 -0.1 81
2020-01-22 03:00:00 10.6 4 Nordeste 13 Norte 0 1017.4 0.1 84
2020-01-22 02:00:00 10.4 2 Nordeste 33 Oeste 0.2 1017.7 0.8 91
2020-01-22 01:00:00 11.5 5 Nordeste 19 Norte 0 1017.3 0.9 77
2020-01-22 00:00:00 11.2 6 Nordeste 17 Este 0 1017.3 1.1 80
2020-01-21 23:00:00 10.9 5 Nordeste 19 Este 0 1016.9 1.1 84
2020-01-21 22:00:00 11.2 4 Nordeste 16 Norte 0 1016.4 1.4 82
2020-01-21 21:00:00 11 6 Norte 14 Norte 0.1 1016.2 2.1 86
2020-01-21 20:00:00 11.3 3 Norte 6 Norte 0 1015.8 2.3 84
2020-01-21 19:00:00 11.9 2 Nordeste 6 Este 0 1015 2.4 83
2020-01-21 18:00:00 12 0 Calma 12 Sudoeste 0 1014.1 1.7 81
2020-01-21 17:00:00 11.7 10 Oeste 22 Oeste 0 1013.5 0.8 82
2020-01-21 16:00:00 13.1 3 Sudoeste 10 Sudoeste 0 1012.6 -1.2 75
2020-01-21 15:00:00 13.2 0 Calma 5 Sur 0 1012.4 -1.4 76
2020-01-21 14:00:00 13 2 Sur 10 Sudoeste 0.2 1012.7 -1.5 81
2020-01-21 13:00:00 12.3 3 Sur 16 Sur 0 1013.8 0.3 81
2020-01-21 12:00:00 12.4 3 Nordeste 9 Nordeste 0 1013.8 0.6 72
2020-01-21 11:00:00 11.7 2 Nordeste 7 Nordeste 0 1014.2 1.1 78
2020-01-21 10:00:00 11.3 2 Nordeste 17 Nordeste 0 1013.5 1.1 80
2020-01-21 09:00:00 10.7 0 Calma 6 Nordeste 0.1 1013.2 0.9 88
2020-01-21 08:00:00 10.5 0 Calma 13 Oeste 0 1013.1 0.4 87
2020-01-21 07:00:00 10.7 10 Oeste 21 Oeste 0.2 1012.4 -1 88
2020-01-21 06:00:00 10.9 9 Oeste 14 Oeste 0.1 1012.3 -1.9 84
2020-01-21 05:00:00 11 3 Noroeste 9 Norte 0 1012.7 -1.3 81
2020-01-21 04:00:00 10.7 0 Calma 13 Este 0 1013.4 -1.6 76
2020-01-21 03:00:00 10.5 7 Este 14 Nordeste 0 1014.2 -1 77
2020-01-21 02:00:00 10.7 3 Norte 15 Este 0 1014 -1.1 75
2020-01-21 01:00:00 11.5 6 Este 19 Sudeste 0 1015 0.1 71
2020-01-21 00:00:00 12 4 Este 20 Norte 0 1015.2 0.3 64
2020-01-20 23:00:00 11.7 2 Nordeste 21 Este 0 1015.1 0.8 67
2020-01-20 22:00:00 12.9 12 Este 24 Este 0 1014.9 1 60
2020-01-20 21:00:00 12.6 9 Este 23 Este 0 1014.9 1.3 64
2020-01-20 20:00:00 12.6 0 Calma 13 Este 0 1014.3 0.9 61
2020-01-20 19:00:00 12.5 5 Nordeste 18 Norte 0 1013.9 0.4 61
2020-01-20 18:00:00 13.2 6 Este 30 Sudeste 0 1013.6 0.1 59
2020-01-20 17:00:00 13.3 11 Este 41 Este 0 1013.4 -0.9 59
2020-01-20 16:00:00 13.2 17 Este 40 Este 0 1013.5 -0.9 59
2020-01-20 15:00:00 11.9 7 Este 28 Este 0 1013.5 -1.3 76
2020-01-20 14:00:00 10 7 Oeste 20 Oeste 0 1014.3 0.2 81
2020-01-20 13:00:00 10.1 10 Oeste 21 Noroeste 0.7 1014.4 0.7 78
2020-01-20 12:00:00 11.1 4 Norte 24 Sudoeste 0 1014.8 1 69
2020-01-20 11:00:00 12.1 5 Sudoeste 19 Sudoeste 0 1014.1 0.6 67
2020-01-20 10:00:00 10.9 5 Noroeste 18 Oeste 0 1013.7 0.2 73
2020-01-20 09:00:00 10.6 4 Noroeste 23 Oeste 0 1013.8 -0.5 75
2020-01-20 08:00:00 10 15 Oeste 31 Oeste 0.1 1013.5 -1.2 75
2020-01-20 07:00:00 9.3 14 Oeste 21 Oeste 0.2 1013.5 -1.7 78
2020-01-20 06:00:00 9.2 5 Norte 35 Norte 1.3 1014.3 -0.6 74
2020-01-20 05:00:00 10.6 4 Nordeste 25 Norte 0.5 1014.7 -0.9 64
2020-01-20 04:00:00 11.9 10 Norte 33 Norte 0 1015.2 -0.7 54
2020-01-20 03:00:00 12.7 10 Norte 33 Norte 0 1014.9 -1.3 50
2020-01-20 02:00:00 12.1 12 Norte 31 Norte 0 1015.6 -0.6 53
2020-01-20 01:00:00 13.1 4 Noroeste 12 Oeste 0 1015.9 -0.3 55
2020-01-20 00:00:00 12.4 3 Norte 10 Noroeste 0 1016.2 0.2 64
2020-01-19 23:00:00 11.3 3 Nordeste 11 Este 0 1016.2 1.3 72
2020-01-19 22:00:00 12.1 2 Nordeste 33 Nordeste 0 1016.2 1.9 69
2020-01-19 21:00:00 12.6 12 Este 27 Este 0 1016 1.5 76
2020-01-19 20:00:00 14.1 8 Este 19 Este 0 1014.9 0.9 65
2020-01-19 19:00:00 14.1 6 Nordeste 13 Este 0 1014.3 0.2 44
2020-01-19 18:00:00 15.1 5 Nordeste 23 Este 0 1014.5 2.3 43
2020-01-19 17:00:00 16.1 7 Norte 18 Norte 0 1014 0.8 39
2020-01-19 16:00:00 16.5 5 Este 21 Oeste 0 1014.1 -0.7 45
2020-01-19 15:00:00 18.6 4 Norte 28 Este 0 1012.2 -3.9 34
2020-01-19 14:00:00 17.3 11 Nordeste 32 Nordeste 0 1013.2 -1.4 37
2020-01-19 13:00:00 16.7 8 Nordeste 24 Nordeste 0 1014.8 0.6 38
2020-01-19 12:00:00 16.4 2 Oeste 11 Oeste 0 1016.1 1 46
2020-01-19 11:00:00 17 6 Oeste 23 Noroeste 0 1014.6 -0.9 50
2020-01-19 10:00:00 17.3 8 Noroeste 28 Norte 0 1014.2 -0.8 38
2020-01-19 09:00:00 15.1 6 Norte 18 Norte 0 1015.1 0.5 49
2020-01-19 08:00:00 13.1 3 Noroeste 21 Noroeste 0 1015.5 0 61
2020-01-19 07:00:00 12.8 5 Nordeste 9 Este 0 1015 -1.4 71
2020-01-19 06:00:00 14.4 4 Nordeste 21 Este 0 1014.6 -3.3 71
2020-01-19 05:00:00 13.4 5 Nordeste 13 Este 0 1015.5 -3.8 75
2020-01-19 04:00:00 14.6 6 Nordeste 21 Oeste 0 1016.4 -4.8 80
2020-01-19 03:00:00 15.2 13 Oeste 34 Oeste 0 1017.9 -4.7 88
2020-01-19 02:00:00 14.9 10 Oeste 35 Oeste 0 1019.3 -4 88
2020-01-19 01:00:00 15.2 25 Oeste 43 Oeste 0 1021.2 -3.4 89
2020-01-19 00:00:00 15.2 19 Oeste 35 Oeste 0 1022.6 -3.5 83
2020-01-18 23:00:00 15.2 20 Oeste 35 Oeste 0.1 1023.3 -3.5 80
2020-01-18 22:00:00 14.7 10 Oeste 24 Noroeste 0 1024.6 -3 78
2020-01-18 21:00:00 13.9 2 Noroeste 6 Sudoeste 0 1026.1 -1.9 80
2020-01-18 20:00:00 14.1 0 Calma 6 Noroeste 0 1026.8 -1.8 82
2020-01-18 19:00:00 14 2 Noroeste 6 Noroeste 0 1027.6 -0.8 82
2020-01-18 18:00:00 14.6 5 Oeste 14 Oeste 0 1028 -1.3 81
2020-01-18 17:00:00 14.6 10 Oeste 15 Oeste 0 1028.6 -2.1 77
2020-01-18 16:00:00 15.8 5 Oeste 10 Sudoeste 0 1028.4 -3.9 70
2020-01-18 15:00:00 14.8 2 Este 9 Norte 0 1029.3 -3.4 76
2020-01-18 14:00:00 14.6 0 Calma 6 Noroeste 0 1030.7 -1 79
2020-01-18 13:00:00 14.3 4 Oeste 15 Oeste 0.5 1032.3 1.3 80
2020-01-18 12:00:00 15.2 5 Oeste 12 Oeste 0 1032.7 1.4 71
2020-01-18 11:00:00 16.3 3 Oeste 10 Oeste 0 1031.7 0.4 59
2020-01-18 10:00:00 15.7 0 Calma 8 Norte 0 1031 -0.4 53
2020-01-18 09:00:00 14.6 3 Nordeste 12 Norte 0 1031.3 0.1 53
2020-01-18 08:00:00 14.6 6 Norte 13 Norte 0 1031.3 -0.5 53
2020-01-18 07:00:00 14.3 5 Nordeste 15 Nordeste 0 1031.4 -1.1 54
2020-01-18 06:00:00 14.4 5 Nordeste 15 Nordeste 0 1031.2 -1.4 57
2020-01-18 05:00:00 13.8 6 Norte 12 Norte 0 1031.8 -0.3 67
2020-01-18 04:00:00 12.7 3 Nordeste 8 Este 0 1032.5 0.1 73
2020-01-18 03:00:00 13.6 2 Nordeste 10 Nordeste 0 1032.6 0 65
2020-01-18 02:00:00 14.2 6 Este 15 Este 0 1032.1 -0.6 61
2020-01-18 01:00:00 13.9 8 Este 17 Este 0 1032.4 -0.1 57
2020-01-18 00:00:00 13.3 4 Norte 8 Este 0 1032.6 0.4 64
2020-01-17 23:00:00 13.3 3 Norte 7 Norte 0 1032.7 0.8 62
2020-01-17 22:00:00 13.5 2 Norte 6 Norte 0 1032.5 1.4 62
2020-01-17 21:00:00 13.2 0 Calma 5 Norte 0 1032.2 1.7 70
2020-01-17 20:00:00 13.8 2 Norte 7 Oeste 0 1031.9 2.4 73
2020-01-17 19:00:00 14.6 0 Calma 5 Este 0 1031.1 2 71
2020-01-17 18:00:00 16.1 2 Este 6 Este 0 1030.5 1.5 59
2020-01-17 17:00:00 17.3 0 Calma 7 Sur 0 1029.5 -0.3 55
2020-01-17 16:00:00 16.7 5 Sudeste 9 Sudeste 0 1029.1 -1.9 59
2020-01-17 15:00:00 16.5 4 Sudeste 8 Sudeste 0 1029 -2.9 65
2020-01-17 14:00:00 16.7 4 Sudeste 10 Sudeste 0 1029.8 -1.2 71
2020-01-17 13:00:00 16.4 5 Sudeste 12 Sudeste 0 1031 0.3 67
2020-01-17 12:00:00 15.8 6 Sudeste 11 Sudeste 0 1031.9 0.3 61
2020-01-17 11:00:00 17.4 2 Sur 7 Sudeste 0 1031 -0.7 50
2020-01-17 10:00:00 15 0 Calma 9 Nordeste 0 1030.7 -0.4 55
2020-01-17 09:00:00 11.7 4 Nordeste 13 Este 0 1031.6 0.8 60
2020-01-17 08:00:00 11.1 4 Nordeste 14 Este 0 1031.7 0.8 60
2020-01-17 07:00:00 11.2 4 Nordeste 13 Nordeste 0 1031.1 0.2 64
2020-01-17 06:00:00 10.9 4 Nordeste 9 Este 0 1030.8 -0.5 65
2020-01-17 05:00:00 10.9 4 Norte 7 Este 0 1030.9 -0.1 76
2020-01-17 04:00:00 10.4 0 Calma 10 Nordeste 0 1030.9 -0.2 66
2020-01-17 03:00:00 10.8 3 Norte 6 Norte 0 1031.3 0.1 76
2020-01-17 02:00:00 11.5 4 Norte 7 Noroeste 0 1031 0.1 75
2020-01-17 01:00:00 11.6 4 Norte 7 Norte 0 1031.1 0.5 78
2020-01-17 00:00:00 11.9 3 Norte 7 Norte 0 1031.2 1 76
2020-01-16 23:00:00 12 5 Norte 8 Noroeste 0 1030.9 1 74
2020-01-16 22:00:00 13 3 Norte 8 Noroeste 0 1030.6 1.2 82
2020-01-16 21:00:00 12.5 5 Norte 6 Norte 0 1030.2 1.7 81
2020-01-16 20:00:00 13.1 4 Norte 6 Norte 0 1029.9 2.5 81
2020-01-16 19:00:00 13.5 4 Norte 10 Oeste 0 1029.4 2.4 81
2020-01-16 18:00:00 15.1 6 Sudoeste 14 Sudoeste 0 1028.5 1.6 77
2020-01-16 17:00:00 15.9 5 Sudoeste 10 Sudoeste 0 1027.4 -0.7 75
2020-01-16 16:00:00 16.7 5 Sudoeste 11 Sudoeste 0 1027 -2.5 72
2020-01-16 15:00:00 17.2 4 Sudoeste 10 Sudoeste 0 1026.9 -2.9 71
2020-01-16 14:00:00 16.4 4 Sur 8 Sur 0 1028.1 -1.3 75
2020-01-16 13:00:00 15.9 5 Sudeste 8 Sudeste 0 1029.5 0.1 76
2020-01-16 12:00:00 15.7 5 Sudeste 8 Sudeste 0 1029.8 0.3 73
2020-01-16 11:00:00 16.3 3 Sudeste 9 Sudeste 0 1029.4 0 54
2020-01-16 10:00:00 13.6 5 Este 14 Este 0 1029.4 0.4 48
2020-01-16 09:00:00 12.8 6 Nordeste 15 Este 0 1029.5 0.4 49
2020-01-16 08:00:00 12.3 4 Nordeste 20 Norte 0 1029.4 0.4 52
2020-01-16 07:00:00 11.3 6 Nordeste 13 Este 0 1029 -0.4 58
2020-01-16 06:00:00 10.6 4 Norte 9 Norte 0 1029.1 -0.5 74
2020-01-16 05:00:00 10.7 5 Norte 8 Norte 0 1029 -0.4 72
2020-01-16 04:00:00 11.3 4 Norte 7 Norte 0 1029.4 -0.1 72
2020-01-16 03:00:00 11.4 3 Norte 8 Norte 0 1029.6 -0.1 73
2020-01-16 02:00:00 11.5 4 Norte 8 Norte 0 1029.4 -0.3 74
2020-01-16 01:00:00 11.9 4 Norte 10 Norte 0 1029.5 -0.1 76
2020-01-16 00:00:00 11.7 3 Norte 6 Noroeste 0 1029.7 0.2 76
2020-01-15 23:00:00 12 4 Norte 8 Norte 0 1029.7 0.2 75
2020-01-15 22:00:00 12.1 3 Norte 8 Norte 0 1029.6 0.8 75
2020-01-15 21:00:00 12.5 0 Calma 4 Norte 0 1029.5 1.5 75
2020-01-15 20:00:00 12.9 0 Calma 4 Noroeste 0 1029.5 2.7 76
2020-01-15 19:00:00 13.6 3 Norte 5 Noroeste 0 1028.8 2.7 75
2020-01-15 18:00:00 15.6 2 Sudeste 5 Sur 0 1028 2.3 66
2020-01-15 17:00:00 16.4 3 Sudeste 6 Sur 0 1026.8 0.1 65
2020-01-15 16:00:00 16.7 4 Sur 8 Sur 0 1026.1 -1.5 66
2020-01-15 15:00:00 16.7 4 Sudeste 7 Sudeste 0 1025.7 -2.5 64
2020-01-15 14:00:00 17.1 3 Sur 10 Sudeste 0 1026.7 -0.9 64
2020-01-15 13:00:00 15.8 6 Sudeste 14 Sudeste 0 1027.6 0.4 62
2020-01-15 12:00:00 15.6 7 Sudeste 12 Este 0 1028.2 1 60
2020-01-15 11:00:00 15.2 4 Nordeste 14 Norte 0 1027.6 1.2 50
2020-01-15 10:00:00 14.3 6 Norte 14 Norte 0 1027.2 1.5 48
2020-01-15 09:00:00 12.3 3 Nordeste 13 Norte 0 1027.2 2.2 53
2020-01-15 08:00:00 12 3 Norte 13 Norte 0 1026.4 1.4 53
2020-01-15 07:00:00 12.2 7 Nordeste 17 Nordeste 0 1025.7 0.7 54
2020-01-15 06:00:00 10.7 4 Nordeste 9 Este 0 1025 -0.1 65
2020-01-15 05:00:00 10.3 0 Calma 8 Noroeste 0 1025 0.1 67
2020-01-15 04:00:00 10.9 3 Norte 5 Nordeste 0 1025 -0.4 69
2020-01-15 03:00:00 11.1 0 Calma 6 Nordeste 0 1025.1 -0.2 69
2020-01-15 02:00:00 11.5 4 Norte 8 Norte 0 1024.9 -0.2 69
2020-01-15 01:00:00 11.6 0 Calma 6 Nordeste 0 1025.4 0.5 72
2020-01-15 00:00:00 11.9 0 Calma 6 Norte 0 1025.3 0.7 76
2020-01-14 23:00:00 12.4 4 Norte 6 Norte 0 1025.1 0.6 75
2020-01-14 22:00:00 12.1 3 Norte 6 Norte 0 1024.9 1 76
2020-01-14 21:00:00 12.7 0 Calma 8 Norte 0 1024.6 1.4 75
2020-01-14 20:00:00 13.3 4 Norte 10 Noroeste 0 1024.5 1.4 75
2020-01-14 19:00:00 14.1 4 Oeste 28 Oeste 0 1023.9 1.1 72
2020-01-14 18:00:00 14.7 19 Oeste 33 Oeste 0 1023.2 0.6 72
2020-01-14 17:00:00 14.5 21 Oeste 35 Oeste 0 1023.1 0 72
2020-01-14 16:00:00 14.7 22 Oeste 37 Oeste 0 1022.8 -1.6 73
2020-01-14 15:00:00 15 22 Oeste 36 Sudoeste 0 1022.6 -2.1 72
2020-01-14 14:00:00 15 20 Sudoeste 32 Sudoeste 0 1023.1 -1.6 71
2020-01-14 13:00:00 14.8 11 Oeste 17 Sudoeste 0 1024.4 -0.9 62
2020-01-14 12:00:00 15.9 4 Sudoeste 11 Sudoeste 0 1024.7 -0.3 50
2020-01-14 11:00:00 14.7 4 Este 8 Este 0 1024.7 -0.6 44
2020-01-14 10:00:00 12.6 3 Nordeste 8 Este 0 1025.3 0.7 50
2020-01-14 09:00:00 11.5 5 Norte 10 Norte 0 1025 1.1 53
2020-01-14 08:00:00 10 2 Norte 14 Norte 0 1025.3 1.4 58
2020-01-14 07:00:00 9.7 2 Nordeste 13 Norte 0 1024.6 0.7 64
2020-01-14 06:00:00 9.7 4 Nordeste 8 Nordeste 0 1023.9 -0.4 77
2020-01-14 05:00:00 9.7 3 Norte 8 Norte 0 1023.9 -0.7 83
2020-01-14 04:00:00 9.6 3 Norte 7 Este 0 1023.9 -1.2 85
2020-01-14 03:00:00 10.2 4 Norte 6 Norte 0 1024.3 -1.3 83
2020-01-14 02:00:00 10.3 3 Norte 6 Norte 0 1024.6 -1.2 86
2020-01-14 01:00:00 10.7 5 Norte 7 Norte 0 1025.1 -0.7 83
2020-01-14 00:00:00 11.1 3 Norte 7 Norte 0 1025.6 -0.7 82
2020-01-13 23:00:00 11.3 5 Norte 8 Norte 0 1025.8 -0.6 82
2020-01-13 22:00:00 11.7 3 Norte 7 Norte 0 1025.8 -0.3 81
2020-01-13 21:00:00 12.3 2 Noroeste 10 Noroeste 0 1026.3 0.2 80
2020-01-13 20:00:00 12.7 5 Noroeste 15 Oeste 0 1026.4 0.5 78
2020-01-13 19:00:00 13.3 10 Oeste 18 Oeste 0 1026.1 1.1 77
2020-01-13 18:00:00 13.7 9 Oeste 16 Oeste 0 1026.1 1 75
2020-01-13 17:00:00 14.1 10 Sudoeste 18 Sudoeste 0 1025.9 -0.4 71
2020-01-13 16:00:00 14.9 9 Sudoeste 17 Sudoeste 0 1025 -2.5 68
2020-01-13 15:00:00 15.5 5 Sudoeste 13 Sudoeste 0 1025.1 -3.7 66
2020-01-13 14:00:00 16.3 3 Sur 12 Sudoeste 0 1026.3 -2.1 64
2020-01-13 13:00:00 16.9 3 Sur 9 Sur 0 1027.5 -1.1 64
2020-01-13 12:00:00 15 4 Sudeste 7 Sur 0 1028.8 -0.6 67
2020-01-13 11:00:00 15.9 0 Calma 9 Este 0 1028.4 -1.3 62
2020-01-13 10:00:00 14 3 Nordeste 7 Norte 0 1028.6 -0.6 59
2020-01-13 09:00:00 11.1 3 Norte 7 Norte 0 1029.4 0.2 71
2020-01-13 08:00:00 9.7 0 Calma 6 Norte 0 1029.7 0 80
2020-01-13 07:00:00 10.3 3 Nordeste 6 Nordeste 0 1029.2 -0.9 79
2020-01-13 06:00:00 10.9 4 Norte 9 Nordeste 0 1029.2 -1.2 76
2020-01-13 05:00:00 10.4 0 Calma 6 Norte 0 1029.7 -0.9 78
2020-01-13 04:00:00 10.8 2 Norte 5 Nordeste 0 1030.1 -0.9 77
2020-01-13 03:00:00 10.7 0 Calma 9 Nordeste 0 1030.4 -1.2 76
2020-01-13 02:00:00 11.5 5 Norte 15 Norte 0 1030.6 -0.6 75
2020-01-13 01:00:00 11.3 4 Nordeste 10 Norte 0 1031 -0.1 77
2020-01-13 00:00:00 12 3 Norte 13 Nordeste 0 1031.6 0.7 78
2020-01-12 23:00:00 12.4 3 Norte 8 Norte 0 1031.2 0.6 81
2020-01-12 22:00:00 12.9 4 Norte 8 Norte 0 1031.1 1 81
2020-01-12 21:00:00 13.1 3 Norte 6 Norte 0 1030.9 1.3 82
2020-01-12 20:00:00 13.8 4 Oeste 15 Oeste 0 1030.6 1.3 80
2020-01-12 19:00:00 14 7 Oeste 17 Oeste 0 1030.1 1.4 80
2020-01-12 18:00:00 14.2 10 Sudoeste 19 Oeste 0 1029.6 1 77
2020-01-12 17:00:00 14.8 10 Sudoeste 19 Sudoeste 0 1029.3 -0.1 72
2020-01-12 16:00:00 15.2 10 Sudoeste 21 Sudoeste 0 1028.7 -1.9 70
2020-01-12 15:00:00 15.4 10 Sudoeste 18 Sudoeste 0 1028.6 -3 68
2020-01-12 14:00:00 15.3 10 Sudoeste 20 Sudoeste 0 1029.4 -2.1 70
2020-01-12 13:00:00 15.5 10 Sudoeste 18 Sudoeste 0 1030.6 -0.6 70
2020-01-12 12:00:00 15.2 10 Sudoeste 16 Sudoeste 0 1031.6 -0.4 68
2020-01-12 11:00:00 15.2 8 Sudoeste 14 Sudoeste 0 1031.5 -0.9 70
2020-01-12 10:00:00 14.1 2 Este 7 Norte 0 1031.2 -0.8 64
2020-01-12 09:00:00 11.2 3 Norte 10 Norte 0 1032 0.1 76
2020-01-12 08:00:00 10.2 2 Nordeste 6 Norte 0 1032.4 0.2 77
2020-01-12 07:00:00 10.3 4 Norte 8 Norte 0 1032 -0.7 76
2020-01-12 06:00:00 10.6 3 Nordeste 6 Nordeste 0 1031.9 -0.7 75
2020-01-12 05:00:00 10.4 3 Nordeste 6 Norte 0 1032.2 -0.2 76
2020-01-12 04:00:00 10.7 2 Norte 6 Norte 0 1032.7 0.1 76
2020-01-12 03:00:00 10.8 0 Calma 6 Nordeste 0 1032.6 -0.3 75
2020-01-12 02:00:00 11.2 3 Norte 6 Norte 0 1032.4 -0.3 72
2020-01-12 01:00:00 11.1 3 Norte 6 Nordeste 0 1032.6 0.3 70
2020-01-12 00:00:00 11.5 2 Nordeste 7 Norte 0 1032.9 0.8 70
2020-01-11 23:00:00 11.7 3 Norte 6 Este 0 1032.7 1 70
2020-01-11 22:00:00 12.3 2 Norte 8 Este 0 1032.3 1.5 64
2020-01-11 21:00:00 12.7 0 Calma 9 Este 0 1032.1 2.2 61
2020-01-11 20:00:00 13.4 3 Norte 5 Noroeste 0 1031.7 2.7 60
2020-01-11 19:00:00 14 2 Norte 11 Este 0 1030.8 2.1 56
2020-01-11 18:00:00 15.4 4 Este 18 Este 0 1029.9 1.4 51
2020-01-11 17:00:00 16.5 8 Sudeste 15 Sudeste 0 1029 0.2 52
2020-01-11 16:00:00 16.3 8 Sudoeste 17 Oeste 0 1028.7 -1 59
2020-01-11 15:00:00 16.2 11 Oeste 18 Sur 0 1028.5 -2 60
2020-01-11 14:00:00 16.5 10 Sudoeste 19 Oeste 0 1028.8 -1.7 61
2020-01-11 13:00:00 16.9 8 Sudoeste 16 Sudoeste 0 1029.7 -0.5 62
2020-01-11 12:00:00 16.5 8 Sudoeste 13 Sudoeste 0 1030.5 0.8 55
2020-01-11 11:00:00 15.9 0 Calma 9 Este 0 1030.5 1.3 51
2020-01-11 10:00:00 13.6 0 Calma 9 Norte 0 1030.2 1.1 58
2020-01-11 09:00:00 12.5 3 Nordeste 10 Norte 0 1029.7 1.2 56
2020-01-11 08:00:00 11.7 0 Calma 10 Este 0 1029.2 0.8 64
2020-01-11 07:00:00 11.5 5 Norte 8 Norte 0 1029.1 0.7 66
2020-01-11 06:00:00 11.5 0 Calma 10 Este 0 1028.5 0.1 65
2020-01-11 05:00:00 11.8 2 Nordeste 17 Este 0 1028.4 0.2 67
2020-01-11 04:00:00 12.4 4 Nordeste 11 Nordeste 0 1028.4 0 70
2020-01-11 03:00:00 12.5 2 Nordeste 12 Nordeste 0 1028.4 -0.1 74
2020-01-11 02:00:00 12.4 4 Nordeste 11 Este 0 1028.2 0.1 77
2020-01-11 01:00:00 12.2 0 Calma 5 Este 0 1028.4 0.6 78
2020-01-11 00:00:00 12.3 3 Nordeste 9 Este 0 1028.5 1.3 77
2020-01-10 23:00:00 12.7 3 Nordeste 6 Norte 0 1028.1 1.6 76
2020-01-10 22:00:00 13.7 0 Calma 9 Norte 0 1027.8 2.1 73
2020-01-10 21:00:00 14.5 3 Nordeste 13 Nordeste 0 1027.2 2.5 73
2020-01-10 20:00:00 14.8 6 Este 19 Sudeste 0 1026.5 3.4 71
2020-01-10 19:00:00 14.7 8 Este 18 Sudeste 0 1025.7 3.4 75
2020-01-10 18:00:00 14.7 6 Sudeste 11 Sudeste 0 1024.7 2.7 76
2020-01-10 17:00:00 15.8 4 Sudeste 10 Sudoeste 0 1023.1 1.1 68
2020-01-10 16:00:00 16.4 7 Sudoeste 13 Sudoeste 0 1022.3 -1.1 68
2020-01-10 15:00:00 16.4 8 Sudoeste 13 Sudoeste 0 1022 -2.3 67
2020-01-10 14:00:00 17.8 4 Sur 11 Sudoeste 0 1022 -2.3 61
2020-01-10 13:00:00 16.3 5 Sudeste 12 Sudeste 0 1023.4 -1.3 61
2020-01-10 12:00:00 17.1 4 Sudeste 11 Nordeste 0 1024.3 -1 55
2020-01-10 11:00:00 16.6 0 Calma 11 Norte 0 1024.3 -1.6 54
2020-01-10 10:00:00 14.5 3 Nordeste 9 Norte 0 1024.7 -1.6 65
2020-01-10 09:00:00 11.9 3 Este 15 Norte 0 1025.3 -0.5 73
2020-01-10 08:00:00 11.4 7 Norte 15 Norte 0 1025.9 0.3 75
2020-01-10 07:00:00 11.8 6 Norte 13 Norte 0 1026.3 0.4 72
2020-01-10 06:00:00 11.7 6 Norte 13 Norte 0 1025.8 -0.6 73
2020-01-10 05:00:00 11.6 4 Norte 12 Nordeste 0 1025.6 -0.7 76
2020-01-10 04:00:00 11.8 3 Norte 9 Norte 0 1025.9 -0.9 76
2020-01-10 03:00:00 12.3 4 Norte 8 Nordeste 0 1026.4 -1 77
2020-01-10 02:00:00 12.4 2 Nordeste 7 Nordeste 0 1026.3 -1.5 77
2020-01-10 01:00:00 12.7 3 Nordeste 7 Este 0 1026.8 -1.2 81
2020-01-10 00:00:00 12.5 4 Norte 7 Norte 0 1027.4 -0.8 81
2020-01-09 23:00:00 12.9 3 Norte 7 Oeste 0 1027.8 -0.3 80
2020-01-09 22:00:00 14.1 4 Oeste 13 Oeste 0 1028 0.4 77
2020-01-09 21:00:00 14.2 7 Oeste 13 Oeste 0 1028.2 0.9 74
2020-01-09 20:00:00 14.1 5 Oeste 11 Oeste 0 1028.1 0.8 73
2020-01-09 19:00:00 14.1 6 Noroeste 14 Noroeste 0 1027.6 2.2 73
2020-01-09 18:00:00 14.5 9 Sudoeste 16 Sudoeste 0 1027.3 1.2 69
2020-01-09 17:00:00 15 8 Sudoeste 18 Sudoeste 0 1027.3 0.2 66
2020-01-09 16:00:00 17.3 4 Sur 12 Sudoeste 0 1025.4 -1.8 55
2020-01-09 15:00:00 16.5 7 Sudoeste 13 Sudoeste 0 1026.1 -3.1 56
2020-01-09 14:00:00 16.6 7 Sudoeste 13 Sudoeste 0 1027.1 -2.5 54
2020-01-09 13:00:00 18.8 2 Sur 10 Este 0 1027.2 -3.2 48
2020-01-09 12:00:00 16.3 3 Nordeste 14 Norte 0 1029.2 -0.6 54
2020-01-09 11:00:00 15.3 6 Norte 15 Norte 0 1029.6 -0.3 60
2020-01-09 10:00:00 12.5 7 Norte 17 Norte 0 1030.4 0.5 69
2020-01-09 09:00:00 11.5 6 Norte 18 Nordeste 0 1029.8 0 73
2020-01-09 08:00:00 11.2 9 Norte 18 Norte 0 1029.9 0 75
2020-01-09 07:00:00 11.3 7 Norte 18 Norte 0 1029.9 -0.3 76
2020-01-09 06:00:00 11.5 7 Norte 18 Nordeste 0 1029.8 -0.9 76
2020-01-09 05:00:00 11.8 8 Norte 17 Norte 0 1029.9 -0.8 76
2020-01-09 04:00:00 11.9 7 Norte 15 Nordeste 0 1030.2 -0.7 78
2020-01-09 03:00:00 11.6 2 Este 6 Norte 0 1030.7 -0.6 82
2020-01-09 02:00:00 11.7 3 Norte 8 Norte 0 1030.7 -0.5 83
2020-01-09 01:00:00 12.2 3 Noroeste 10 Este 0 1030.9 0.1 83
2020-01-09 00:00:00 13.1 6 Este 13 Este 0 1031.3 0.5 82
2020-01-08 23:00:00 13.2 5 Este 13 Este 0 1031.2 0.9 81
2020-01-08 22:00:00 13.7 3 Este 11 Este 0 1030.8 0.9 83
2020-01-08 21:00:00 13.2 4 Nordeste 10 Este 0 1030.8 1.2 86
2020-01-08 20:00:00 13.2 2 Nordeste 10 Este 0 1030.3 1.8 86
2020-01-08 19:00:00 13.5 0 Calma 8 Norte 0 1029.9 2.1 81
2020-01-08 18:00:00 14.2 4 Este 8 Este 0 1029.6 2.3 77
2020-01-08 17:00:00 14.6 6 Sudeste 10 Sudeste 0 1028.5 0.3 73
2020-01-08 16:00:00 15.1 4 Sudeste 7 Sudeste 0 1027.8 -- 70
2020-01-08 15:00:00 16.6 0 Calma 11 Sudoeste 0 1027.3 -- 66
2020-01-08 14:00:00 15.9 5 Sudoeste -- -- -- 1028.2 -- 69
2020-01-08 13:00:00 -- -- -- -- -- -- -- -- --
2020-01-08 12:00:00 -- -- -- -- -- -- -- -- --
2020-01-08 11:00:00 -- -- -- -- -- -- -- -- --
2020-01-08 10:00:00 -- -- -- -- -- -- -- -- --
2020-01-08 09:00:00 -- -- -- -- -- -- -- -- --
2020-01-08 08:00:00 -- -- -- -- -- -- -- -- --
2020-01-08 07:00:00 -- -- -- -- -- -- -- -- --
2020-01-08 06:00:00 -- -- -- -- -- -- -- -- --
2020-01-08 05:00:00 -- -- -- -- -- -- -- -- --
2020-01-08 04:00:00 -- -- -- -- -- -- -- -- --
2020-01-08 03:00:00 -- -- -- -- -- -- -- -- --
2020-01-08 02:00:00 -- -- -- -- -- -- -- -- --
2020-01-08 01:00:00 -- -- -- -- -- -- -- -- --
2020-01-08 00:00:00 -- -- -- -- -- -- -- -- --
2020-01-07 23:00:00 -- -- -- -- -- -- -- -- --
2020-01-07 22:00:00 -- -- -- -- -- -- -- -- --
2020-01-07 21:00:00 -- -- -- -- -- -- -- -- --
2020-01-07 20:00:00 -- -- -- -- -- -- -- -- --
2020-01-07 19:00:00 -- -- -- -- -- -- -- -- --
2020-01-07 18:00:00 -- -- -- -- -- -- -- -- --
2020-01-07 17:00:00 -- -- -- -- -- -- -- -- --
2020-01-07 16:00:00 -- -- -- -- -- -- -- -- --
2020-01-07 15:00:00 -- -- -- -- -- -- -- -- --
2020-01-07 14:00:00 -- -- -- -- -- -- -- -- --
2020-01-07 13:00:00 -- -- -- -- -- -- -- -- --
2020-01-07 12:00:00 -- -- -- -- -- -- -- -- --
2020-01-07 11:00:00 -- -- -- -- -- -- -- -- --
2020-01-07 10:00:00 -- -- -- -- -- -- -- -- --
2020-01-07 09:00:00 -- -- -- -- -- -- -- -- --
2020-01-07 08:00:00 -- -- -- -- -- -- -- -- --
2020-01-07 07:00:00 -- -- -- -- -- -- -- -- --
2020-01-07 06:00:00 -- -- -- -- -- -- -- -- --
2020-01-07 05:00:00 -- -- -- -- -- -- -- -- --
2020-01-07 04:00:00 -- -- -- -- -- -- -- -- --
2020-01-07 03:00:00 -- -- -- -- -- -- -- -- --
2020-01-07 02:00:00 -- -- -- -- -- -- -- -- --
2020-01-07 01:00:00 -- -- -- -- -- -- -- -- --
2020-01-07 00:00:00 -- -- -- -- -- -- -- -- --
2020-01-06 23:00:00 -- -- -- -- -- -- -- -- --
2020-01-06 22:00:00 -- -- -- -- -- -- -- -- --
2020-01-06 21:00:00 -- -- -- -- -- -- -- -- --
2020-01-06 20:00:00 -- -- -- -- -- -- -- -- --
2020-01-06 19:00:00 -- -- -- -- -- -- -- -- --
2020-01-06 18:00:00 -- -- -- -- -- -- -- -- --
2020-01-06 17:00:00 -- -- -- -- -- -- -- -- --
2020-01-06 16:00:00 -- -- -- -- -- -- -- -- --
2020-01-06 15:00:00 -- -- -- -- -- -- -- -- --
2020-01-06 14:00:00 -- -- -- -- -- -- -- -- --
2020-01-06 13:00:00 -- -- -- -- -- -- -- -- --
2020-01-06 12:00:00 -- -- -- -- -- -- -- -- --
2020-01-06 11:00:00 -- -- -- -- -- -- -- -- --
2020-01-06 10:00:00 -- -- -- -- -- -- -- -- --